Hlavní strana
METAR-TAF:

METAR-TAF

Letiště :

Mount Carmel Municipal Airport

Mount Carmel, Illinois, Spojené státy americké

zeměpisná šířka: 38-36-23N, zeměpisná délka: 087-43-36W, výška: 131 m

Aktuální stav počasí

Zpráva byla vytvořena před 25 minutami, v 18:55 UTC
Západojihozápadní vítr 4 kt
Teplota 21°C
Vlhkost vzduchu 53%
Tlak 1018 hPa
Viditelnost: 16.1 km
Zataženo ve výšce 6000 ft

METAR: KAJG 061855Z AUTO 24004KT 10SM OVC060 21/11 A3005 RMK AO2 T02130108

Čas: 14:20 (19:20 UTC)


TAF: chybějící

Stav a předpovědi počasí z více než 4 000 letišť (zprávy METAR a TAF).

Červené a žluté tečky na mapě představují dostupné meteorologické stanice.

Když kurzor umístíte na tečku, zobrazí se název stanice.

Pak kliknutím zobrazíte stav a předpověď počasí.

Chcete-li změnit mapu, kliknutím na zelené tlačítko se znaménkem +mapu přiblížíte, kliknutím na zelené tlačítko se znaménkem – mapu oddálíte a kliknutím na zelené šipky přejdete na sousední mapy.


METAR-TAF: